createdAt,value
2023-05-02T00:00:55.353Z,35.80
2023-05-02T00:03:22.170Z,35.75
2023-05-02T00:05:49.189Z,35.72
2023-05-02T00:08:16.460Z,35.51
2023-05-02T00:10:43.542Z,35.67
2023-05-02T00:13:10.397Z,35.83
2023-05-02T00:15:37.409Z,35.49
2023-05-02T00:18:04.179Z,35.61
2023-05-02T00:20:31.241Z,35.72
2023-05-02T00:22:58.129Z,35.55
2023-05-02T00:25:25.243Z,35.86
2023-05-02T00:27:52.883Z,36.10
2023-05-02T00:30:21.171Z,35.96
2023-05-02T00:32:48.040Z,35.82
2023-05-02T00:35:15.116Z,36.01
2023-05-02T00:37:41.846Z,36.01
2023-05-02T00:40:09.383Z,36.02
2023-05-02T00:42:36.645Z,35.72
2023-05-02T00:45:06.522Z,35.99
2023-05-02T00:47:33.608Z,36.01
2023-05-02T00:50:01.540Z,35.83
2023-05-02T00:52:28.778Z,35.92
2023-05-02T00:54:55.840Z,35.92
2023-05-02T00:57:23.018Z,35.55
2023-05-02T00:59:50.166Z,35.81
2023-05-02T01:02:26.131Z,35.85
2023-05-02T01:05:10.461Z,35.56
2023-05-02T01:07:46.507Z,35.56
2023-05-02T01:10:42.261Z,35.81
2023-05-02T01:13:23.197Z,35.74
2023-05-02T01:15:51.821Z,35.59
2023-05-02T01:18:21.318Z,35.98
2023-05-02T01:20:48.522Z,35.92
2023-05-02T01:23:46.366Z,35.98
2023-05-02T01:26:34.377Z,35.89
2023-05-02T01:29:02.333Z,35.60
2023-05-02T01:31:37.202Z,35.61
2023-05-02T01:34:05.511Z,35.96
2023-05-02T01:36:32.715Z,35.75
2023-05-02T01:39:00.532Z,36.00
2023-05-02T01:41:28.684Z,36.12
2023-05-02T01:43:57.310Z,35.91
2023-05-02T01:46:26.608Z,35.98
2023-05-02T01:48:53.390Z,35.86
2023-05-02T01:51:20.436Z,36.19
2023-05-02T01:53:48.141Z,36.05
2023-05-02T01:56:16.938Z,35.90
2023-05-02T01:58:43.601Z,36.09
2023-05-02T02:01:10.826Z,35.99
2023-05-02T02:03:37.692Z,35.80
2023-05-02T02:06:04.955Z,36.10
2023-05-02T02:08:31.824Z,36.29
2023-05-02T02:11:00.673Z,36.11
2023-05-02T02:13:32.365Z,36.17
2023-05-02T02:16:01.191Z,36.18
2023-05-02T02:18:28.064Z,36.11
2023-05-02T02:20:55.164Z,36.00
2023-05-02T02:23:23.174Z,36.23
2023-05-02T02:25:50.671Z,36.11
2023-05-02T02:28:17.431Z,36.03
2023-05-02T02:30:44.532Z,35.92
2023-05-02T02:33:11.281Z,36.17
2023-05-02T02:35:40.950Z,36.22
2023-05-02T02:38:27.136Z,36.22
2023-05-02T02:41:05.913Z,36.20
2023-05-02T02:43:54.157Z,36.37
2023-05-02T02:46:39.776Z,36.37
2023-05-02T02:49:18.890Z,36.18
2023-05-02T02:51:50.438Z,36.59
2023-05-02T02:54:36.273Z,36.36
2023-05-02T02:57:14.140Z,36.29
2023-05-02T02:59:44.402Z,36.66
2023-05-02T03:02:12.995Z,36.28
2023-05-02T03:04:42.167Z,36.28
2023-05-02T03:07:09.288Z,36.43
2023-05-02T03:09:45.856Z,36.37
2023-05-02T03:12:12.970Z,36.14
2023-05-02T03:14:39.920Z,36.23
2023-05-02T03:17:08.526Z,36.64
2023-05-02T03:19:35.842Z,36.32
2023-05-02T03:22:03.688Z,36.12
2023-05-02T03:24:30.585Z,36.26
2023-05-02T03:26:59.091Z,36.58
2023-05-02T03:29:26.225Z,36.33
2023-05-02T03:31:53.321Z,36.69
2023-05-02T03:34:22.005Z,36.28
2023-05-02T03:36:49.241Z,36.22
2023-05-02T03:39:15.973Z,36.46
2023-05-02T03:41:43.957Z,36.21
2023-05-02T03:44:10.924Z,36.43
2023-05-02T03:46:38.215Z,36.10
2023-05-02T03:49:04.970Z,36.32
2023-05-02T03:51:33.882Z,36.40
2023-05-02T03:54:02.598Z,36.31
2023-05-02T03:56:29.714Z,36.53
2023-05-02T03:58:56.463Z,36.57
2023-05-02T04:01:23.700Z,36.47
2023-05-02T04:03:51.955Z,36.34
2023-05-02T04:06:19.060Z,36.68
2023-05-02T04:08:45.797Z,36.64
2023-05-02T04:11:12.878Z,36.64
2023-05-02T04:13:39.673Z,36.82
2023-05-02T04:16:06.979Z,36.75
2023-05-02T04:18:33.787Z,36.60
2023-05-02T04:21:00.762Z,36.56
2023-05-02T04:23:27.467Z,36.60
2023-05-02T04:25:55.024Z,36.71
2023-05-02T04:28:22.287Z,36.65
2023-05-02T04:30:49.841Z,36.57
2023-05-02T04:33:18.493Z,36.51
2023-05-02T04:35:45.561Z,36.64
2023-05-02T04:38:12.293Z,36.49
2023-05-02T04:40:39.344Z,36.66
2023-05-02T04:43:06.168Z,36.56
2023-05-02T04:45:35.792Z,36.47
2023-05-02T04:48:03.657Z,36.70
2023-05-02T04:50:32.163Z,36.42
2023-05-02T04:52:59.515Z,36.83
2023-05-02T04:55:26.273Z,36.50
2023-05-02T04:57:53.380Z,36.82
2023-05-02T05:00:20.273Z,36.82
2023-05-02T05:02:47.611Z,36.58
2023-05-02T05:05:14.558Z,36.73
2023-05-02T05:07:41.605Z,36.91
2023-05-02T05:10:11.289Z,36.90
2023-05-02T05:12:38.349Z,36.94
2023-05-02T05:15:05.482Z,37.00
2023-05-02T05:17:32.779Z,36.73
2023-05-02T05:19:59.790Z,37.02
2023-05-02T05:22:27.034Z,37.31
2023-05-02T05:24:54.127Z,36.71
2023-05-02T05:27:21.547Z,37.16
2023-05-02T05:29:48.482Z,37.58
2023-05-02T05:32:15.719Z,37.23
2023-05-02T05:34:42.609Z,37.22
2023-05-02T05:37:09.734Z,37.15
2023-05-02T05:39:36.617Z,37.03
2023-05-02T05:42:03.760Z,37.07
2023-05-02T05:44:31.679Z,36.84
2023-05-02T05:46:58.856Z,36.74
2023-05-02T05:49:25.721Z,36.64
2023-05-02T05:51:52.801Z,36.70
2023-05-02T05:54:19.584Z,36.62
2023-05-02T05:56:47.016Z,36.97
2023-05-02T05:59:13.796Z,36.88
2023-05-02T06:01:40.945Z,36.69
2023-05-02T06:04:07.955Z,36.46
2023-05-02T06:06:35.259Z,36.64
2023-05-02T06:09:02.282Z,36.53
2023-05-02T06:11:29.369Z,36.57
2023-05-02T06:13:56.152Z,36.68
2023-05-02T06:16:23.320Z,36.67
2023-05-02T06:18:50.793Z,36.41
2023-05-02T06:21:17.799Z,36.51
2023-05-02T06:23:44.555Z,36.16
2023-05-02T06:26:11.607Z,36.13
2023-05-02T06:28:38.375Z,36.33
2023-05-02T06:31:05.987Z,36.09
2023-05-02T06:33:33.446Z,35.92
2023-05-02T06:36:02.006Z,36.20
2023-05-02T06:38:29.197Z,36.05
2023-05-02T06:40:56.416Z,36.12
2023-05-02T06:43:23.219Z,36.03
2023-05-02T06:45:53.189Z,35.97
2023-05-02T06:48:20.025Z,35.96
2023-05-02T06:50:47.694Z,35.72
2023-05-02T06:53:14.469Z,35.57
2023-05-02T06:55:41.459Z,35.81
2023-05-02T06:58:08.375Z,35.87
2023-05-02T07:00:35.479Z,35.81
2023-05-02T07:03:02.367Z,35.97
2023-05-02T07:05:29.816Z,35.81
2023-05-02T07:07:56.522Z,36.03
2023-05-02T07:10:23.965Z,35.70
2023-05-02T07:12:50.724Z,35.61
2023-05-02T07:15:18.036Z,35.57
2023-05-02T07:17:44.848Z,35.56
2023-05-02T07:20:12.305Z,36.01
2023-05-02T07:22:39.103Z,36.12
2023-05-02T07:25:06.560Z,36.04
2023-05-02T07:27:33.308Z,35.99
2023-05-02T07:30:00.590Z,36.09
2023-05-02T07:32:28.089Z,35.73
2023-05-02T07:34:56.316Z,35.88
2023-05-02T07:37:23.172Z,35.73
2023-05-02T07:39:50.273Z,35.68
2023-05-02T07:42:16.997Z,35.61
2023-05-02T07:44:44.135Z,35.79
2023-05-02T07:47:10.939Z,35.34
2023-05-02T07:49:38.007Z,35.51
2023-05-02T07:52:04.964Z,35.66
2023-05-02T07:54:32.096Z,35.34
2023-05-02T07:57:02.382Z,35.19
2023-05-02T07:59:32.307Z,35.44
2023-05-02T08:01:59.160Z,35.56
2023-05-02T08:04:26.502Z,35.66
2023-05-02T08:06:53.529Z,35.59
2023-05-02T08:09:20.637Z,35.30
2023-05-02T08:11:47.489Z,35.17
2023-05-02T08:14:16.062Z,35.40
2023-05-02T08:16:44.755Z,35.31
2023-05-02T08:19:13.247Z,35.62
2023-05-02T08:21:39.988Z,35.44
2023-05-02T08:24:07.112Z,35.70
2023-05-02T08:26:34.031Z,35.65
2023-05-02T08:29:01.325Z,35.10
2023-05-02T08:31:28.296Z,35.52
2023-05-02T08:33:55.502Z,35.25
2023-05-02T08:36:22.375Z,35.46
2023-05-02T08:38:49.599Z,35.04
2023-05-02T08:41:17.887Z,35.51
2023-05-02T08:43:48.096Z,35.24
2023-05-02T08:46:16.664Z,35.60
2023-05-02T08:48:46.015Z,35.21
2023-05-02T08:51:14.437Z,35.54
2023-05-02T08:53:41.910Z,35.25
2023-05-02T08:56:09.470Z,35.18
2023-05-02T08:58:40.330Z,34.85
2023-05-02T09:01:17.346Z,35.28
2023-05-02T09:03:47.086Z,34.83
2023-05-02T09:06:18.899Z,34.75
2023-05-02T09:08:49.420Z,34.67
2023-05-02T09:11:18.180Z,34.79
2023-05-02T09:13:52.784Z,35.05
2023-05-02T09:16:23.869Z,35.78
2023-05-02T09:18:52.884Z,34.81
2023-05-02T09:21:22.687Z,34.81
2023-05-02T09:23:50.798Z,34.82
2023-05-02T09:26:27.865Z,35.34
2023-05-02T09:28:56.662Z,34.81
2023-05-02T09:31:49.588Z,34.27
2023-05-02T09:34:18.292Z,34.62
2023-05-02T09:36:46.871Z,34.08
2023-05-02T09:39:15.576Z,34.25
2023-05-02T09:41:43.164Z,34.14
2023-05-02T09:44:14.338Z,34.19
2023-05-02T09:46:42.900Z,33.98
2023-05-02T09:49:10.355Z,34.15
2023-05-02T09:51:37.628Z,34.43
2023-05-02T09:54:04.903Z,34.57
2023-05-02T09:56:31.750Z,34.14
2023-05-02T09:59:17.341Z,34.62
2023-05-02T10:01:44.162Z,34.04
2023-05-02T10:04:18.886Z,34.52
2023-05-02T10:06:46.210Z,34.29
2023-05-02T10:09:16.638Z,34.64
2023-05-02T10:11:48.380Z,34.03
2023-05-02T10:14:15.558Z,34.33
2023-05-02T10:16:48.167Z,34.62
2023-05-02T10:19:17.999Z,34.73
2023-05-02T10:21:44.889Z,34.13
2023-05-02T10:24:13.231Z,34.02
2023-05-02T10:26:40.024Z,34.31
2023-05-02T10:29:08.335Z,34.39
2023-05-02T10:31:35.247Z,34.22
2023-05-02T10:34:02.363Z,34.42
2023-05-02T10:36:29.314Z,34.37
2023-05-02T10:38:56.560Z,34.59
2023-05-02T10:41:26.480Z,34.07
2023-05-02T10:43:53.771Z,34.46
2023-05-02T10:46:34.377Z,34.06
2023-05-02T10:49:08.936Z,34.09
2023-05-02T10:51:36.868Z,34.25
2023-05-02T10:54:19.379Z,34.18
2023-05-02T10:57:03.659Z,34.14
2023-05-02T10:59:40.605Z,33.91
2023-05-02T11:02:31.047Z,34.08
2023-05-02T11:05:07.694Z,34.15
2023-05-02T11:07:35.689Z,34.04
2023-05-02T11:10:18.322Z,34.15
2023-05-02T11:12:51.680Z,33.75
2023-05-02T11:15:33.626Z,33.90
2023-05-02T11:18:09.500Z,33.94
2023-05-02T11:20:39.543Z,33.51
2023-05-02T11:23:15.617Z,33.50
2023-05-02T11:25:43.651Z,34.00
2023-05-02T11:28:39.529Z,33.62
2023-05-02T11:31:27.451Z,33.45
2023-05-02T11:34:03.717Z,33.80
2023-05-02T11:36:32.268Z,33.69
2023-05-02T11:39:00.194Z,33.98
2023-05-02T11:41:40.093Z,33.71
2023-05-02T11:44:07.352Z,33.57
2023-05-02T11:46:37.094Z,33.50
2023-05-02T11:49:05.094Z,34.02
2023-05-02T11:51:33.451Z,33.62
2023-05-02T11:54:00.234Z,33.53
2023-05-02T11:56:27.547Z,33.54
2023-05-02T11:59:03.957Z,34.08
2023-05-02T12:01:31.411Z,33.81
2023-05-02T12:04:05.135Z,34.06
2023-05-02T12:06:32.325Z,33.72
2023-05-02T12:09:14.457Z,34.39
2023-05-02T12:11:41.545Z,34.57
2023-05-02T12:14:08.589Z,34.44
2023-05-02T12:16:36.032Z,33.93
2023-05-02T12:19:04.311Z,34.42
2023-05-02T12:21:33.151Z,34.69
2023-05-02T12:24:01.034Z,34.71
2023-05-02T12:26:33.133Z,34.88
2023-05-02T12:29:00.964Z,35.01
2023-05-02T12:31:31.290Z,34.81
2023-05-02T12:34:00.438Z,35.07
2023-05-02T12:36:30.816Z,34.97
2023-05-02T12:38:59.882Z,35.08
2023-05-02T12:41:37.507Z,35.20
2023-05-02T12:44:04.973Z,34.71
2023-05-02T12:46:32.665Z,35.34
2023-05-02T12:49:08.221Z,34.83
2023-05-02T12:51:36.626Z,35.03
2023-05-02T12:54:03.961Z,35.08
2023-05-02T12:56:38.397Z,35.09
2023-05-02T12:59:05.782Z,34.98
2023-05-02T13:01:33.923Z,35.11
2023-05-02T13:04:00.882Z,34.82
2023-05-02T13:06:28.007Z,35.13
2023-05-02T13:08:54.751Z,34.90
2023-05-02T13:11:21.941Z,34.63
2023-05-02T13:13:48.706Z,35.05
2023-05-02T13:16:15.875Z,35.01
2023-05-02T13:18:43.582Z,34.67
2023-05-02T13:21:12.499Z,34.29
2023-05-02T13:23:39.961Z,34.33
2023-05-02T13:26:07.004Z,34.24
2023-05-02T13:28:35.755Z,34.70
2023-05-02T13:31:02.985Z,34.50
2023-05-02T13:33:29.825Z,34.11
2023-05-02T13:35:56.892Z,34.48
2023-05-02T13:38:23.673Z,34.24
2023-05-02T13:40:50.795Z,34.22
2023-05-02T13:43:17.505Z,34.31
2023-05-02T13:45:44.871Z,34.47
2023-05-02T13:48:11.699Z,34.21
2023-05-02T13:50:39.199Z,33.87
2023-05-02T13:53:06.241Z,33.97
2023-05-02T13:55:33.416Z,34.33
2023-05-02T13:58:00.315Z,34.34
2023-05-02T14:00:29.225Z,34.00
2023-05-02T14:02:56.178Z,34.33
2023-05-02T14:05:23.357Z,34.01
2023-05-02T14:07:50.852Z,34.48
2023-05-02T14:10:18.067Z,34.56
2023-05-02T14:12:44.837Z,34.17
2023-05-02T14:15:12.564Z,34.34
2023-05-02T14:17:39.403Z,34.12
2023-05-02T14:20:07.995Z,34.09
2023-05-02T14:22:34.865Z,34.37
2023-05-02T14:25:01.960Z,34.25
2023-05-02T14:27:28.802Z,33.95
2023-05-02T14:29:55.983Z,33.86
2023-05-02T14:32:22.954Z,34.08
2023-05-02T14:34:49.990Z,33.96
2023-05-02T14:37:16.698Z,33.82
2023-05-02T14:39:46.632Z,33.92
2023-05-02T14:42:14.833Z,33.83
2023-05-02T14:44:42.277Z,33.84
2023-05-02T14:47:09.305Z,34.02
2023-05-02T14:49:36.769Z,33.67
2023-05-02T14:52:03.691Z,33.71
2023-05-02T14:54:31.011Z,33.77
2023-05-02T14:56:58.064Z,34.33
2023-05-02T14:59:27.932Z,33.95
2023-05-02T15:01:54.866Z,34.42
2023-05-02T15:04:22.424Z,34.84
2023-05-02T15:06:49.568Z,34.67
2023-05-02T15:09:16.690Z,34.80
2023-05-02T15:11:44.773Z,34.71
2023-05-02T15:14:12.136Z,35.44
2023-05-02T15:16:39.789Z,35.39
2023-05-02T15:19:07.453Z,35.30
2023-05-02T15:21:35.198Z,35.61
2023-05-02T15:24:02.730Z,35.23
2023-05-02T15:26:30.248Z,35.15
2023-05-02T15:28:57.361Z,35.02
2023-05-02T15:31:24.454Z,35.16
2023-05-02T15:33:51.715Z,35.10
2023-05-02T15:36:18.580Z,35.26
2023-05-02T15:38:45.638Z,35.29
2023-05-02T15:41:12.389Z,35.48
2023-05-02T15:43:39.586Z,35.51
2023-05-02T15:46:06.552Z,35.26
2023-05-02T15:48:34.797Z,35.96
2023-05-02T15:51:02.720Z,35.60
2023-05-02T15:53:29.920Z,35.95
2023-05-02T15:55:56.783Z,36.27
2023-05-02T15:58:23.949Z,36.35
2023-05-02T16:00:52.525Z,36.09
2023-05-02T16:03:19.901Z,36.05
2023-05-02T16:05:46.840Z,35.97
2023-05-02T16:08:13.945Z,36.13
2023-05-02T16:10:43.255Z,36.47
2023-05-02T16:13:10.538Z,35.85
2023-05-02T16:15:38.085Z,36.09
2023-05-02T16:18:05.302Z,36.05
2023-05-02T16:20:36.472Z,36.05
2023-05-02T16:23:04.145Z,36.33
2023-05-02T16:25:31.121Z,36.31
2023-05-02T16:27:58.230Z,36.68
2023-05-02T16:30:25.155Z,36.87
2023-05-02T16:32:52.886Z,36.50
2023-05-02T16:35:20.059Z,36.90
2023-05-02T16:37:48.200Z,36.70
2023-05-02T16:40:15.104Z,36.83
2023-05-02T16:42:42.325Z,36.77
2023-05-02T16:45:09.370Z,36.72
2023-05-02T16:47:36.760Z,36.11
2023-05-02T16:50:03.819Z,36.56
2023-05-02T16:52:31.503Z,36.27
2023-05-02T16:54:59.096Z,36.22
2023-05-02T16:57:27.265Z,36.18
2023-05-02T16:59:54.082Z,36.38
2023-05-02T17:02:22.231Z,36.82
2023-05-02T17:04:49.986Z,36.86
2023-05-02T17:07:17.352Z,36.89
2023-05-02T17:09:44.615Z,36.76
2023-05-02T17:12:11.986Z,36.52
2023-05-02T17:14:41.146Z,36.34
2023-05-02T17:17:08.599Z,36.81
2023-05-02T17:19:36.023Z,36.48
2023-05-02T17:22:05.314Z,36.45
2023-05-02T17:24:32.608Z,36.45
2023-05-02T17:27:00.157Z,36.54
2023-05-02T17:29:27.530Z,36.72
2023-05-02T17:31:57.325Z,36.64
2023-05-02T17:34:28.481Z,36.78
2023-05-02T17:36:56.052Z,36.33
2023-05-02T17:39:23.339Z,36.39
2023-05-02T17:41:51.118Z,36.32
2023-05-02T17:44:18.572Z,36.58
2023-05-02T17:46:45.589Z,36.61
2023-05-02T17:49:15.330Z,36.74
2023-05-02T17:51:42.695Z,36.97
2023-05-02T17:54:09.862Z,36.66
2023-05-02T17:56:37.511Z,36.98
2023-05-02T17:59:05.099Z,36.78
2023-05-02T18:01:32.172Z,36.83
2023-05-02T18:04:00.113Z,36.70
2023-05-02T18:06:28.341Z,36.98
2023-05-02T18:08:55.699Z,37.30
2023-05-02T18:11:24.254Z,36.86
2023-05-02T18:13:52.768Z,37.22
2023-05-02T18:16:19.758Z,37.37
2023-05-02T18:18:47.052Z,37.28
2023-05-02T18:21:22.586Z,37.37
2023-05-02T18:23:49.733Z,37.18
2023-05-02T18:26:16.586Z,37.17
2023-05-02T18:28:46.646Z,36.86
2023-05-02T18:31:17.631Z,37.11
2023-05-02T18:33:46.559Z,37.00
2023-05-02T18:36:14.522Z,37.33
2023-05-02T18:38:42.370Z,37.01
2023-05-02T18:41:09.457Z,37.33
2023-05-02T18:43:36.735Z,37.35
2023-05-02T18:46:03.632Z,37.12
2023-05-02T18:48:31.476Z,37.21
2023-05-02T18:50:58.379Z,37.45
2023-05-02T18:53:26.484Z,37.41
2023-05-02T18:55:57.418Z,37.14
2023-05-02T18:58:24.516Z,36.95
2023-05-02T19:00:51.340Z,37.42
2023-05-02T19:03:19.063Z,37.17
2023-05-02T19:05:46.120Z,37.13
2023-05-02T19:08:13.246Z,37.61
2023-05-02T19:10:40.889Z,37.57
2023-05-02T19:13:08.056Z,37.45
2023-05-02T19:15:34.976Z,37.08
2023-05-02T19:18:02.967Z,37.15
2023-05-02T19:20:30.478Z,37.41
2023-05-02T19:23:10.984Z,37.14
2023-05-02T19:25:45.596Z,37.01
2023-05-02T19:28:17.292Z,37.52
2023-05-02T19:30:44.609Z,37.17
2023-05-02T19:33:11.979Z,36.92
2023-05-02T19:35:39.437Z,37.28
2023-05-02T19:38:06.718Z,37.06
2023-05-02T19:40:33.593Z,37.12
2023-05-02T19:43:02.061Z,37.34
2023-05-02T19:45:30.439Z,37.15
2023-05-02T19:47:59.202Z,36.92
2023-05-02T19:50:26.425Z,37.52
2023-05-02T19:52:54.115Z,37.28
2023-05-02T19:55:21.644Z,37.49
2023-05-02T19:57:48.891Z,37.33
2023-05-02T20:00:16.095Z,37.12
2023-05-02T20:02:43.462Z,37.08
2023-05-02T20:05:10.492Z,37.71
2023-05-02T20:07:39.123Z,37.23
2023-05-02T20:10:07.942Z,37.34
2023-05-02T20:12:35.140Z,37.53
2023-05-02T20:15:04.215Z,37.38
2023-05-02T20:17:31.561Z,37.68
2023-05-02T20:19:58.548Z,37.64
2023-05-02T20:22:25.657Z,37.72
2023-05-02T20:24:52.480Z,37.49
2023-05-02T20:27:19.703Z,37.55
2023-05-02T20:29:47.382Z,38.01
2023-05-02T20:32:14.560Z,37.88
2023-05-02T20:34:41.602Z,37.75
2023-05-02T20:37:10.282Z,37.87
2023-05-02T20:39:37.781Z,38.06
2023-05-02T20:42:05.811Z,38.09
2023-05-02T20:44:33.617Z,38.03
2023-05-02T20:47:01.377Z,37.87
2023-05-02T20:49:32.375Z,38.07
2023-05-02T20:52:04.084Z,38.11
2023-05-02T20:54:31.546Z,38.19
2023-05-02T20:56:58.639Z,38.06
2023-05-02T20:59:25.752Z,38.01
2023-05-02T21:01:52.871Z,38.62
2023-05-02T21:04:19.809Z,38.40
2023-05-02T21:06:47.189Z,38.18
2023-05-02T21:09:14.244Z,38.25
2023-05-02T21:11:41.915Z,38.41
2023-05-02T21:14:08.813Z,38.26
2023-05-02T21:16:36.721Z,38.43
2023-05-02T21:19:03.656Z,38.47
2023-05-02T21:21:30.881Z,38.23
2023-05-02T21:23:58.676Z,38.61
2023-05-02T21:26:26.322Z,38.47
2023-05-02T21:28:53.169Z,38.35
2023-05-02T21:31:20.310Z,38.43
2023-05-02T21:33:47.055Z,38.39
2023-05-02T21:36:14.259Z,38.19
2023-05-02T21:38:41.033Z,38.45
2023-05-02T21:41:08.879Z,38.54
2023-05-02T21:43:38.367Z,38.50
2023-05-02T21:46:05.494Z,38.46
2023-05-02T21:48:33.331Z,38.22
2023-05-02T21:51:00.334Z,38.42
2023-05-02T21:53:27.222Z,38.42
2023-05-02T21:55:54.757Z,38.51
2023-05-02T21:58:21.518Z,38.39
2023-05-02T22:00:48.613Z,38.63
2023-05-02T22:03:15.521Z,38.62
2023-05-02T22:05:42.592Z,38.40
2023-05-02T22:08:09.984Z,38.38
2023-05-02T22:10:38.666Z,38.36
2023-05-02T22:13:06.524Z,38.58
2023-05-02T22:15:33.591Z,38.67
2023-05-02T22:18:01.674Z,38.31
2023-05-02T22:20:28.929Z,38.47
2023-05-02T22:22:55.672Z,38.62
2023-05-02T22:25:22.712Z,38.71
2023-05-02T22:27:49.451Z,38.39
2023-05-02T22:30:16.636Z,38.53
2023-05-02T22:32:43.367Z,38.24
2023-05-02T22:35:10.844Z,38.31
2023-05-02T22:37:37.614Z,38.63
2023-05-02T22:40:07.469Z,38.69
2023-05-02T22:42:34.214Z,38.48
2023-05-02T22:45:01.545Z,38.55
2023-05-02T22:47:29.231Z,38.68
2023-05-02T22:49:59.692Z,38.88
2023-05-02T22:52:27.462Z,38.73
2023-05-02T22:54:54.617Z,38.70
2023-05-02T22:57:21.304Z,38.79
2023-05-02T22:59:49.418Z,38.72
2023-05-02T23:02:16.117Z,38.85
2023-05-02T23:04:43.234Z,38.97
2023-05-02T23:07:10.257Z,39.03
2023-05-02T23:09:37.264Z,38.83
2023-05-02T23:12:04.270Z,38.93
2023-05-02T23:14:31.356Z,39.04
2023-05-02T23:16:58.425Z,38.66
2023-05-02T23:19:25.919Z,38.54
2023-05-02T23:21:52.659Z,38.84
2023-05-02T23:24:19.697Z,38.86
2023-05-02T23:26:46.410Z,39.04
2023-05-02T23:29:13.590Z,39.17
2023-05-02T23:31:40.531Z,39.00
2023-05-02T23:34:07.551Z,39.19
2023-05-02T23:36:34.640Z,38.83
2023-05-02T23:39:05.515Z,38.69
2023-05-02T23:41:32.312Z,38.92
2023-05-02T23:43:59.407Z,38.91
2023-05-02T23:46:27.229Z,38.92
2023-05-02T23:48:54.309Z,38.92
2023-05-02T23:51:21.061Z,39.15
2023-05-02T23:53:48.090Z,38.97
2023-05-02T23:56:14.804Z,38.93
2023-05-02T23:58:41.818Z,38.97
